sensor_id;sensor_type;location;lat;lon;timestamp;P1;durP1;ratioP1;P2;durP2;ratioP2
24635;SDS011;12772;49.794;10.024;2023-09-19T00:03:55;0.90;;;0.90;;
24635;SDS011;12772;49.794;10.024;2023-09-19T00:07:57;2.25;;;1.20;;
24635;SDS011;12772;49.794;10.024;2023-09-19T00:11:59;0.85;;;0.85;;
24635;SDS011;12772;49.794;10.024;2023-09-19T00:16:07;0.82;;;0.82;;
24635;SDS011;12772;49.794;10.024;2023-09-19T00:20:11;0.90;;;0.85;;
24635;SDS011;12772;49.794;10.024;2023-09-19T00:24:14;0.85;;;0.85;;
24635;SDS011;12772;49.794;10.024;2023-09-19T00:28:18;1.70;;;0.88;;
24635;SDS011;12772;49.794;10.024;2023-09-19T00:32:20;2.65;;;1.20;;
24635;SDS011;12772;49.794;10.024;2023-09-19T00:36:22;1.42;;;0.80;;
24635;SDS011;12772;49.794;10.024;2023-09-19T00:40:24;1.27;;;0.93;;
24635;SDS011;12772;49.794;10.024;2023-09-19T00:44:27;0.90;;;0.90;;
24635;SDS011;12772;49.794;10.024;2023-09-19T00:48:29;1.00;;;1.00;;
24635;SDS011;12772;49.794;10.024;2023-09-19T00:52:32;1.95;;;1.10;;
24635;SDS011;12772;49.794;10.024;2023-09-19T00:56:37;3.42;;;1.05;;
24635;SDS011;12772;49.794;10.024;2023-09-19T01:00:40;0.93;;;0.93;;
24635;SDS011;12772;49.794;10.024;2023-09-19T01:04:45;1.73;;;1.20;;
24635;SDS011;12772;49.794;10.024;2023-09-19T01:08:47;0.93;;;0.93;;
24635;SDS011;12772;49.794;10.024;2023-09-19T01:17:05;1.05;;;0.90;;
24635;SDS011;12772;49.794;10.024;2023-09-19T01:21:30;1.33;;;1.23;;
24635;SDS011;12772;49.794;10.024;2023-09-19T01:29:46;1.30;;;1.20;;
24635;SDS011;12772;49.794;10.024;2023-09-19T01:33:54;0.98;;;0.98;;
24635;SDS011;12772;49.794;10.024;2023-09-19T01:37:59;1.85;;;1.10;;
24635;SDS011;12772;49.794;10.024;2023-09-19T01:42:06;1.48;;;1.27;;
24635;SDS011;12772;49.794;10.024;2023-09-19T01:46:40;1.58;;;0.95;;
24635;SDS011;12772;49.794;10.024;2023-09-19T01:55:07;2.25;;;1.40;;
24635;SDS011;12772;49.794;10.024;2023-09-19T01:59:16;1.25;;;1.15;;
24635;SDS011;12772;49.794;10.024;2023-09-19T02:03:27;3.70;;;1.30;;
24635;SDS011;12772;49.794;10.024;2023-09-19T02:07:30;1.52;;;1.35;;
24635;SDS011;12772;49.794;10.024;2023-09-19T02:11:32;1.95;;;1.27;;
24635;SDS011;12772;49.794;10.024;2023-09-19T02:15:34;1.20;;;1.05;;
24635;SDS011;12772;49.794;10.024;2023-09-19T02:19:38;2.35;;;1.30;;
24635;SDS011;12772;49.794;10.024;2023-09-19T02:23:41;10.45;;;1.65;;
24635;SDS011;12772;49.794;10.024;2023-09-19T02:27:43;3.42;;;1.48;;
24635;SDS011;12772;49.794;10.024;2023-09-19T02:31:45;1.90;;;1.20;;
24635;SDS011;12772;49.794;10.024;2023-09-19T02:35:47;1.65;;;1.35;;
24635;SDS011;12772;49.794;10.024;2023-09-19T02:39:50;2.70;;;1.30;;
24635;SDS011;12772;49.794;10.024;2023-09-19T02:43:52;2.33;;;1.55;;
24635;SDS011;12772;49.794;10.024;2023-09-19T02:47:55;1.55;;;1.40;;
24635;SDS011;12772;49.794;10.024;2023-09-19T02:51:57;1.90;;;1.70;;
24635;SDS011;12772;49.794;10.024;2023-09-19T02:56:00;1.98;;;1.58;;
24635;SDS011;12772;49.794;10.024;2023-09-19T03:00:03;1.50;;;1.40;;
24635;SDS011;12772;49.794;10.024;2023-09-19T03:04:06;2.33;;;1.60;;
24635;SDS011;12772;49.794;10.024;2023-09-19T03:08:09;2.63;;;1.60;;
24635;SDS011;12772;49.794;10.024;2023-09-19T03:12:11;3.10;;;1.85;;
24635;SDS011;12772;49.794;10.024;2023-09-19T03:16:17;2.95;;;1.80;;
24635;SDS011;12772;49.794;10.024;2023-09-19T03:20:19;1.75;;;1.65;;
24635;SDS011;12772;49.794;10.024;2023-09-19T03:24:21;3.00;;;1.85;;
24635;SDS011;12772;49.794;10.024;2023-09-19T03:28:24;2.30;;;2.10;;
24635;SDS011;12772;49.794;10.024;2023-09-19T03:32:26;2.03;;;1.90;;
24635;SDS011;12772;49.794;10.024;2023-09-19T03:36:29;3.05;;;1.73;;
24635;SDS011;12772;49.794;10.024;2023-09-19T03:40:31;2.10;;;1.88;;
24635;SDS011;12772;49.794;10.024;2023-09-19T03:44:33;2.80;;;2.03;;
24635;SDS011;12772;49.794;10.024;2023-09-19T03:48:35;2.20;;;1.98;;
24635;SDS011;12772;49.794;10.024;2023-09-19T03:52:37;2.50;;;2.30;;
24635;SDS011;12772;49.794;10.024;2023-09-19T03:56:39;4.25;;;2.50;;
24635;SDS011;12772;49.794;10.024;2023-09-19T04:00:41;3.72;;;2.38;;
24635;SDS011;12772;49.794;10.024;2023-09-19T04:04:43;1.98;;;1.80;;
24635;SDS011;12772;49.794;10.024;2023-09-19T04:08:45;2.25;;;2.05;;
24635;SDS011;12772;49.794;10.024;2023-09-19T04:12:54;2.47;;;1.85;;
24635;SDS011;12772;49.794;10.024;2023-09-19T04:16:56;2.15;;;1.95;;
24635;SDS011;12772;49.794;10.024;2023-09-19T04:20:59;2.67;;;2.17;;
24635;SDS011;12772;49.794;10.024;2023-09-19T04:25:03;2.75;;;1.92;;
24635;SDS011;12772;49.794;10.024;2023-09-19T04:29:07;1.80;;;1.60;;
24635;SDS011;12772;49.794;10.024;2023-09-19T04:33:11;3.25;;;1.52;;
24635;SDS011;12772;49.794;10.024;2023-09-19T04:37:14;3.75;;;1.70;;
24635;SDS011;12772;49.794;10.024;2023-09-19T04:41:16;1.70;;;1.60;;
24635;SDS011;12772;49.794;10.024;2023-09-19T04:45:18;2.42;;;1.92;;
24635;SDS011;12772;49.794;10.024;2023-09-19T04:49:20;2.05;;;1.67;;
24635;SDS011;12772;49.794;10.024;2023-09-19T04:53:22;2.50;;;2.00;;
24635;SDS011;12772;49.794;10.024;2023-09-19T04:57:24;3.53;;;2.10;;
24635;SDS011;12772;49.794;10.024;2023-09-19T05:01:28;1.70;;;1.60;;
24635;SDS011;12772;49.794;10.024;2023-09-19T05:05:30;1.63;;;1.52;;
24635;SDS011;12772;49.794;10.024;2023-09-19T05:09:32;2.45;;;1.60;;
24635;SDS011;12772;49.794;10.024;2023-09-19T05:13:35;1.90;;;1.60;;
24635;SDS011;12772;49.794;10.024;2023-09-19T05:17:37;2.10;;;1.50;;
24635;SDS011;12772;49.794;10.024;2023-09-19T05:21:39;3.40;;;1.77;;
24635;SDS011;12772;49.794;10.024;2023-09-19T05:25:41;1.98;;;1.77;;
24635;SDS011;12772;49.794;10.024;2023-09-19T05:29:43;2.53;;;2.03;;
24635;SDS011;12772;49.794;10.024;2023-09-19T05:33:45;1.80;;;1.50;;
24635;SDS011;12772;49.794;10.024;2023-09-19T05:37:48;1.92;;;1.70;;
24635;SDS011;12772;49.794;10.024;2023-09-19T05:41:53;4.30;;;2.08;;
24635;SDS011;12772;49.794;10.024;2023-09-19T05:45:55;1.63;;;1.50;;
24635;SDS011;12772;49.794;10.024;2023-09-19T05:49:57;2.40;;;1.83;;
24635;SDS011;12772;49.794;10.024;2023-09-19T05:53:59;2.28;;;2.05;;
24635;SDS011;12772;49.794;10.024;2023-09-19T05:58:01;2.15;;;1.55;;
24635;SDS011;12772;49.794;10.024;2023-09-19T06:02:04;3.85;;;2.13;;
24635;SDS011;12772;49.794;10.024;2023-09-19T06:06:07;1.75;;;1.60;;
24635;SDS011;12772;49.794;10.024;2023-09-19T06:10:09;1.85;;;1.70;;
24635;SDS011;12772;49.794;10.024;2023-09-19T06:14:11;3.03;;;2.03;;
24635;SDS011;12772;49.794;10.024;2023-09-19T06:18:13;6.22;;;2.00;;
24635;SDS011;12772;49.794;10.024;2023-09-19T06:22:19;4.43;;;2.10;;
24635;SDS011;12772;49.794;10.024;2023-09-19T06:26:21;4.65;;;2.10;;
24635;SDS011;12772;49.794;10.024;2023-09-19T06:30:24;4.82;;;2.30;;
24635;SDS011;12772;49.794;10.024;2023-09-19T06:34:26;2.92;;;2.10;;
24635;SDS011;12772;49.794;10.024;2023-09-19T06:38:28;11.48;;;2.40;;
24635;SDS011;12772;49.794;10.024;2023-09-19T06:42:30;3.67;;;2.35;;
24635;SDS011;12772;49.794;10.024;2023-09-19T06:46:33;3.20;;;2.30;;
24635;SDS011;12772;49.794;10.024;2023-09-19T06:50:35;2.10;;;2.00;;
24635;SDS011;12772;49.794;10.024;2023-09-19T06:54:37;2.72;;;2.30;;
24635;SDS011;12772;49.794;10.024;2023-09-19T06:58:40;3.08;;;2.40;;
24635;SDS011;12772;49.794;10.024;2023-09-19T07:02:44;2.55;;;2.15;;
24635;SDS011;12772;49.794;10.024;2023-09-19T07:06:49;5.90;;;2.70;;
24635;SDS011;12772;49.794;10.024;2023-09-19T07:10:51;4.63;;;2.20;;
24635;SDS011;12772;49.794;10.024;2023-09-19T07:14:54;5.15;;;2.45;;
24635;SDS011;12772;49.794;10.024;2023-09-19T07:18:56;3.78;;;2.25;;
24635;SDS011;12772;49.794;10.024;2023-09-19T07:22:58;3.47;;;2.20;;
24635;SDS011;12772;49.794;10.024;2023-09-19T07:27:01;4.78;;;2.42;;
24635;SDS011;12772;49.794;10.024;2023-09-19T07:31:05;6.55;;;3.08;;
24635;SDS011;12772;49.794;10.024;2023-09-19T07:35:09;3.42;;;2.17;;
24635;SDS011;12772;49.794;10.024;2023-09-19T07:39:12;3.05;;;2.05;;
24635;SDS011;12772;49.794;10.024;2023-09-19T07:43:14;3.72;;;2.95;;
24635;SDS011;12772;49.794;10.024;2023-09-19T07:47:18;4.43;;;2.25;;
24635;SDS011;12772;49.794;10.024;2023-09-19T07:51:21;4.13;;;1.98;;
24635;SDS011;12772;49.794;10.024;2023-09-19T07:55:23;5.43;;;2.35;;
24635;SDS011;12772;49.794;10.024;2023-09-19T07:59:26;3.45;;;2.08;;
24635;SDS011;12772;49.794;10.024;2023-09-19T08:03:28;3.13;;;2.08;;
24635;SDS011;12772;49.794;10.024;2023-09-19T08:07:30;2.65;;;2.20;;
24635;SDS011;12772;49.794;10.024;2023-09-19T08:11:32;5.15;;;2.10;;
24635;SDS011;12772;49.794;10.024;2023-09-19T08:15:34;3.63;;;2.13;;
24635;SDS011;12772;49.794;10.024;2023-09-19T08:19:36;3.35;;;2.08;;
24635;SDS011;12772;49.794;10.024;2023-09-19T08:23:42;4.10;;;2.13;;
24635;SDS011;12772;49.794;10.024;2023-09-19T08:27:45;3.35;;;2.40;;
24635;SDS011;12772;49.794;10.024;2023-09-19T08:31:49;4.18;;;2.08;;
24635;SDS011;12772;49.794;10.024;2023-09-19T08:35:51;3.33;;;2.05;;
24635;SDS011;12772;49.794;10.024;2023-09-19T08:39:53;3.38;;;1.83;;
24635;SDS011;12772;49.794;10.024;2023-09-19T08:43:58;7.05;;;2.00;;
24635;SDS011;12772;49.794;10.024;2023-09-19T08:52:41;4.35;;;1.70;;
24635;SDS011;12772;49.794;10.024;2023-09-19T08:56:44;5.80;;;1.85;;
24635;SDS011;12772;49.794;10.024;2023-09-19T09:00:48;4.38;;;2.35;;
24635;SDS011;12772;49.794;10.024;2023-09-19T09:04:52;4.03;;;1.95;;
24635;SDS011;12772;49.794;10.024;2023-09-19T09:08:56;2.90;;;1.75;;
24635;SDS011;12772;49.794;10.024;2023-09-19T09:12:59;3.72;;;1.80;;
24635;SDS011;12772;49.794;10.024;2023-09-19T09:17:01;3.60;;;1.90;;
24635;SDS011;12772;49.794;10.024;2023-09-19T09:21:03;3.20;;;1.60;;
24635;SDS011;12772;49.794;10.024;2023-09-19T09:25:05;2.53;;;1.50;;
24635;SDS011;12772;49.794;10.024;2023-09-19T09:29:08;3.45;;;1.60;;
24635;SDS011;12772;49.794;10.024;2023-09-19T09:33:11;5.57;;;1.80;;
24635;SDS011;12772;49.794;10.024;2023-09-19T09:37:14;1.63;;;1.52;;
24635;SDS011;12772;49.794;10.024;2023-09-19T09:41:19;2.67;;;1.67;;
24635;SDS011;12772;49.794;10.024;2023-09-19T09:45:38;8.15;;;1.60;;
24635;SDS011;12772;49.794;10.024;2023-09-19T09:49:48;2.83;;;1.58;;
24635;SDS011;12772;49.794;10.024;2023-09-19T09:54:13;2.95;;;1.92;;
24635;SDS011;12772;49.794;10.024;2023-09-19T09:58:16;1.92;;;1.73;;
24635;SDS011;12772;49.794;10.024;2023-09-19T10:02:20;2.00;;;1.60;;
24635;SDS011;12772;49.794;10.024;2023-09-19T10:06:39;2.75;;;1.80;;
24635;SDS011;12772;49.794;10.024;2023-09-19T10:10:48;3.20;;;1.73;;
24635;SDS011;12772;49.794;10.024;2023-09-19T10:15:04;2.58;;;2.10;;
24635;SDS011;12772;49.794;10.024;2023-09-19T10:19:08;4.40;;;2.00;;
24635;SDS011;12772;49.794;10.024;2023-09-19T10:23:11;2.55;;;1.95;;
24635;SDS011;12772;49.794;10.024;2023-09-19T10:27:14;3.47;;;1.75;;
24635;SDS011;12772;49.794;10.024;2023-09-19T10:31:18;4.10;;;1.70;;
24635;SDS011;12772;49.794;10.024;2023-09-19T10:35:21;2.13;;;1.60;;
24635;SDS011;12772;49.794;10.024;2023-09-19T10:39:24;1.70;;;1.60;;
24635;SDS011;12772;49.794;10.024;2023-09-19T10:43:29;2.92;;;2.00;;
24635;SDS011;12772;49.794;10.024;2023-09-19T10:47:32;2.40;;;1.80;;
24635;SDS011;12772;49.794;10.024;2023-09-19T10:51:39;3.28;;;1.95;;
24635;SDS011;12772;49.794;10.024;2023-09-19T10:55:56;4.10;;;2.05;;
24635;SDS011;12772;49.794;10.024;2023-09-19T11:00:04;3.90;;;1.70;;
24635;SDS011;12772;49.794;10.024;2023-09-19T11:08:55;3.88;;;1.77;;
24635;SDS011;12772;49.794;10.024;2023-09-19T11:13:24;2.08;;;1.88;;
24635;SDS011;12772;49.794;10.024;2023-09-19T11:17:33;3.17;;;1.83;;
24635;SDS011;12772;49.794;10.024;2023-09-19T11:21:41;2.00;;;1.88;;
24635;SDS011;12772;49.794;10.024;2023-09-19T11:25:55;1.67;;;1.58;;
24635;SDS011;12772;49.794;10.024;2023-09-19T11:30:25;3.95;;;1.80;;
24635;SDS011;12772;49.794;10.024;2023-09-19T11:42:49;1.65;;;1.50;;
24635;SDS011;12772;49.794;10.024;2023-09-19T11:46:54;1.70;;;1.60;;
24635;SDS011;12772;49.794;10.024;2023-09-19T11:50:59;3.10;;;1.98;;
24635;SDS011;12772;49.794;10.024;2023-09-19T11:55:07;2.78;;;1.85;;
24635;SDS011;12772;49.794;10.024;2023-09-19T11:59:11;2.35;;;1.60;;
24635;SDS011;12772;49.794;10.024;2023-09-19T12:03:21;1.50;;;1.40;;
24635;SDS011;12772;49.794;10.024;2023-09-19T12:07:25;3.40;;;1.42;;
24635;SDS011;12772;49.794;10.024;2023-09-19T12:11:28;3.50;;;1.77;;
24635;SDS011;12772;49.794;10.024;2023-09-19T12:15:33;2.13;;;1.92;;
24635;SDS011;12772;49.794;10.024;2023-09-19T12:19:40;2.58;;;1.85;;
24635;SDS011;12772;49.794;10.024;2023-09-19T12:23:58;2.70;;;1.98;;
24635;SDS011;12772;49.794;10.024;2023-09-19T12:28:00;1.80;;;1.70;;
24635;SDS011;12772;49.794;10.024;2023-09-19T12:32:03;2.75;;;1.80;;
24635;SDS011;12772;49.794;10.024;2023-09-19T12:36:22;3.90;;;1.50;;
24635;SDS011;12772;49.794;10.024;2023-09-19T12:40:30;3.42;;;1.55;;
24635;SDS011;12772;49.794;10.024;2023-09-19T12:44:33;1.38;;;1.27;;
24635;SDS011;12772;49.794;10.024;2023-09-19T12:48:37;3.92;;;1.70;;
24635;SDS011;12772;49.794;10.024;2023-09-19T12:52:45;4.57;;;1.75;;
24635;SDS011;12772;49.794;10.024;2023-09-19T12:56:49;3.58;;;1.88;;
24635;SDS011;12772;49.794;10.024;2023-09-19T13:00:51;2.00;;;1.73;;
24635;SDS011;12772;49.794;10.024;2023-09-19T13:04:54;2.33;;;1.63;;
24635;SDS011;12772;49.794;10.024;2023-09-19T13:09:10;2.05;;;1.52;;
24635;SDS011;12772;49.794;10.024;2023-09-19T13:13:24;2.90;;;1.70;;
24635;SDS011;12772;49.794;10.024;2023-09-19T13:17:41;4.20;;;1.70;;
24635;SDS011;12772;49.794;10.024;2023-09-19T13:21:48;2.92;;;1.40;;
24635;SDS011;12772;49.794;10.024;2023-09-19T13:25:51;2.03;;;1.58;;
24635;SDS011;12772;49.794;10.024;2023-09-19T13:29:53;2.00;;;1.50;;
24635;SDS011;12772;49.794;10.024;2023-09-19T13:33:55;3.58;;;2.05;;
24635;SDS011;12772;49.794;10.024;2023-09-19T13:37:57;5.22;;;1.75;;
24635;SDS011;12772;49.794;10.024;2023-09-19T13:41:59;2.80;;;1.52;;
24635;SDS011;12772;49.794;10.024;2023-09-19T13:46:03;3.20;;;1.60;;
24635;SDS011;12772;49.794;10.024;2023-09-19T13:50:07;3.03;;;1.70;;
24635;SDS011;12772;49.794;10.024;2023-09-19T13:54:10;2.42;;;1.83;;
24635;SDS011;12772;49.794;10.024;2023-09-19T13:58:13;3.13;;;1.75;;
24635;SDS011;12772;49.794;10.024;2023-09-19T14:02:15;1.75;;;1.60;;
24635;SDS011;12772;49.794;10.024;2023-09-19T14:06:18;2.53;;;1.60;;
24635;SDS011;12772;49.794;10.024;2023-09-19T14:10:20;1.60;;;1.50;;
24635;SDS011;12772;49.794;10.024;2023-09-19T14:14:22;3.13;;;1.58;;
24635;SDS011;12772;49.794;10.024;2023-09-19T14:18:24;2.13;;;1.73;;
24635;SDS011;12772;49.794;10.024;2023-09-19T14:22:26;1.65;;;1.50;;
24635;SDS011;12772;49.794;10.024;2023-09-19T14:26:28;2.42;;;1.35;;
24635;SDS011;12772;49.794;10.024;2023-09-19T14:30:31;7.68;;;1.90;;
24635;SDS011;12772;49.794;10.024;2023-09-19T14:34:33;1.50;;;1.40;;
24635;SDS011;12772;49.794;10.024;2023-09-19T14:38:37;4.15;;;1.83;;
24635;SDS011;12772;49.794;10.024;2023-09-19T14:42:39;1.95;;;1.58;;
24635;SDS011;12772;49.794;10.024;2023-09-19T14:46:42;2.05;;;1.50;;
24635;SDS011;12772;49.794;10.024;2023-09-19T14:50:45;2.35;;;1.50;;
24635;SDS011;12772;49.794;10.024;2023-09-19T14:54:51;2.05;;;1.70;;
24635;SDS011;12772;49.794;10.024;2023-09-19T14:58:53;4.47;;;2.28;;
24635;SDS011;12772;49.794;10.024;2023-09-19T15:02:55;2.22;;;1.60;;
24635;SDS011;12772;49.794;10.024;2023-09-19T15:06:57;2.92;;;1.70;;
24635;SDS011;12772;49.794;10.024;2023-09-19T15:11:00;2.75;;;1.83;;
24635;SDS011;12772;49.794;10.024;2023-09-19T15:15:05;2.28;;;1.52;;
24635;SDS011;12772;49.794;10.024;2023-09-19T15:19:08;2.38;;;2.00;;
24635;SDS011;12772;49.794;10.024;2023-09-19T15:23:10;1.83;;;1.60;;
24635;SDS011;12772;49.794;10.024;2023-09-19T15:27:13;3.13;;;1.33;;
24635;SDS011;12772;49.794;10.024;2023-09-19T15:31:17;3.65;;;1.75;;
24635;SDS011;12772;49.794;10.024;2023-09-19T15:35:19;2.95;;;1.60;;
24635;SDS011;12772;49.794;10.024;2023-09-19T15:39:22;1.83;;;1.50;;
24635;SDS011;12772;49.794;10.024;2023-09-19T15:43:24;2.50;;;1.67;;
24635;SDS011;12772;49.794;10.024;2023-09-19T15:47:26;1.60;;;1.50;;
24635;SDS011;12772;49.794;10.024;2023-09-19T15:51:29;2.33;;;1.40;;
24635;SDS011;12772;49.794;10.024;2023-09-19T15:55:31;1.60;;;1.48;;
24635;SDS011;12772;49.794;10.024;2023-09-19T15:59:39;1.73;;;1.63;;
24635;SDS011;12772;49.794;10.024;2023-09-19T16:03:48;2.78;;;1.27;;
24635;SDS011;12772;49.794;10.024;2023-09-19T16:07:52;4.10;;;1.73;;
24635;SDS011;12772;49.794;10.024;2023-09-19T16:11:54;1.60;;;1.50;;
24635;SDS011;12772;49.794;10.024;2023-09-19T16:15:57;2.95;;;1.60;;
24635;SDS011;12772;49.794;10.024;2023-09-19T16:19:59;1.90;;;1.50;;
24635;SDS011;12772;49.794;10.024;2023-09-19T16:24:01;2.42;;;1.50;;
24635;SDS011;12772;49.794;10.024;2023-09-19T16:28:03;2.28;;;1.40;;
24635;SDS011;12772;49.794;10.024;2023-09-19T16:32:06;1.65;;;1.40;;
24635;SDS011;12772;49.794;10.024;2023-09-19T16:36:08;3.47;;;1.40;;
24635;SDS011;12772;49.794;10.024;2023-09-19T16:40:11;3.05;;;1.42;;
24635;SDS011;12772;49.794;10.024;2023-09-19T16:44:13;1.58;;;1.30;;
24635;SDS011;12772;49.794;10.024;2023-09-19T16:48:16;2.72;;;1.60;;
24635;SDS011;12772;49.794;10.024;2023-09-19T16:52:18;2.70;;;1.65;;
24635;SDS011;12772;49.794;10.024;2023-09-19T16:56:20;1.40;;;1.30;;
24635;SDS011;12772;49.794;10.024;2023-09-19T17:00:22;2.60;;;1.27;;
24635;SDS011;12772;49.794;10.024;2023-09-19T17:04:26;1.60;;;1.48;;
24635;SDS011;12772;49.794;10.024;2023-09-19T17:08:29;2.25;;;1.63;;
24635;SDS011;12772;49.794;10.024;2023-09-19T17:12:31;2.90;;;1.60;;
24635;SDS011;12772;49.794;10.024;2023-09-19T17:16:34;1.85;;;1.08;;
24635;SDS011;12772;49.794;10.024;2023-09-19T17:20:41;2.15;;;1.30;;
24635;SDS011;12772;49.794;10.024;2023-09-19T17:24:43;3.15;;;1.73;;
24635;SDS011;12772;49.794;10.024;2023-09-19T17:28:46;2.92;;;1.55;;
24635;SDS011;12772;49.794;10.024;2023-09-19T17:32:48;1.40;;;1.30;;
24635;SDS011;12772;49.794;10.024;2023-09-19T17:36:50;1.20;;;1.20;;
24635;SDS011;12772;49.794;10.024;2023-09-19T17:40:52;1.77;;;1.42;;
24635;SDS011;12772;49.794;10.024;2023-09-19T17:44:55;2.10;;;1.20;;
24635;SDS011;12772;49.794;10.024;2023-09-19T17:48:57;2.08;;;1.40;;
24635;SDS011;12772;49.794;10.024;2023-09-19T17:53:00;2.53;;;1.52;;
24635;SDS011;12772;49.794;10.024;2023-09-19T17:57:02;2.15;;;1.50;;
24635;SDS011;12772;49.794;10.024;2023-09-19T18:05:17;1.90;;;1.40;;
24635;SDS011;12772;49.794;10.024;2023-09-19T18:09:21;2.90;;;1.60;;
24635;SDS011;12772;49.794;10.024;2023-09-19T18:13:23;2.05;;;1.40;;
24635;SDS011;12772;49.794;10.024;2023-09-19T18:17:25;3.22;;;1.67;;
24635;SDS011;12772;49.794;10.024;2023-09-19T18:21:27;3.40;;;1.58;;
24635;SDS011;12772;49.794;10.024;2023-09-19T18:25:30;2.28;;;1.30;;
24635;SDS011;12772;49.794;10.024;2023-09-19T18:29:32;1.50;;;1.40;;
24635;SDS011;12772;49.794;10.024;2023-09-19T18:33:34;1.60;;;1.48;;
24635;SDS011;12772;49.794;10.024;2023-09-19T18:37:37;2.08;;;1.20;;
24635;SDS011;12772;49.794;10.024;2023-09-19T18:41:39;1.70;;;1.23;;
24635;SDS011;12772;49.794;10.024;2023-09-19T18:45:40;2.92;;;1.83;;
24635;SDS011;12772;49.794;10.024;2023-09-19T18:49:44;1.42;;;1.33;;
24635;SDS011;12772;49.794;10.024;2023-09-19T18:53:46;1.85;;;1.75;;
24635;SDS011;12772;49.794;10.024;2023-09-19T18:57:51;4.82;;;1.70;;
24635;SDS011;12772;49.794;10.024;2023-09-19T19:01:53;1.50;;;1.30;;
24635;SDS011;12772;49.794;10.024;2023-09-19T19:05:56;1.38;;;1.17;;
24635;SDS011;12772;49.794;10.024;2023-09-19T19:09:59;1.70;;;1.60;;
24635;SDS011;12772;49.794;10.024;2023-09-19T19:14:02;1.63;;;1.38;;
24635;SDS011;12772;49.794;10.024;2023-09-19T19:18:05;2.08;;;1.38;;
24635;SDS011;12772;49.794;10.024;2023-09-19T19:22:07;1.20;;;1.10;;
24635;SDS011;12772;49.794;10.024;2023-09-19T19:26:09;1.30;;;1.17;;
24635;SDS011;12772;49.794;10.024;2023-09-19T19:30:11;1.42;;;1.17;;
24635;SDS011;12772;49.794;10.024;2023-09-19T19:34:18;2.85;;;1.63;;
24635;SDS011;12772;49.794;10.024;2023-09-19T19:38:20;1.48;;;1.38;;
24635;SDS011;12772;49.794;10.024;2023-09-19T19:42:24;1.67;;;1.40;;
24635;SDS011;12772;49.794;10.024;2023-09-19T19:46:26;1.73;;;1.50;;
24635;SDS011;12772;49.794;10.024;2023-09-19T19:50:28;2.28;;;1.60;;
24635;SDS011;12772;49.794;10.024;2023-09-19T19:54:38;1.40;;;1.30;;
24635;SDS011;12772;49.794;10.024;2023-09-19T19:58:40;2.75;;;1.55;;
24635;SDS011;12772;49.794;10.024;2023-09-19T20:02:43;1.40;;;1.30;;
24635;SDS011;12772;49.794;10.024;2023-09-19T20:06:46;1.42;;;1.33;;
24635;SDS011;12772;49.794;10.024;2023-09-19T20:10:49;1.50;;;1.30;;
24635;SDS011;12772;49.794;10.024;2023-09-19T20:14:51;2.25;;;1.40;;
24635;SDS011;12772;49.794;10.024;2023-09-19T20:18:57;1.40;;;1.30;;
24635;SDS011;12772;49.794;10.024;2023-09-19T20:23:00;1.83;;;1.25;;
24635;SDS011;12772;49.794;10.024;2023-09-19T20:27:03;1.38;;;1.25;;
24635;SDS011;12772;49.794;10.024;2023-09-19T20:31:07;1.77;;;1.65;;
24635;SDS011;12772;49.794;10.024;2023-09-19T20:35:10;1.70;;;1.50;;
24635;SDS011;12772;49.794;10.024;2023-09-19T20:39:14;1.58;;;1.48;;
24635;SDS011;12772;49.794;10.024;2023-09-19T20:43:17;2.50;;;1.40;;
24635;SDS011;12772;49.794;10.024;2023-09-19T20:47:19;2.25;;;1.60;;
24635;SDS011;12772;49.794;10.024;2023-09-19T20:51:21;3.75;;;1.73;;
24635;SDS011;12772;49.794;10.024;2023-09-19T20:55:26;1.30;;;1.20;;
24635;SDS011;12772;49.794;10.024;2023-09-19T20:59:28;2.55;;;1.40;;
24635;SDS011;12772;49.794;10.024;2023-09-19T21:03:30;5.78;;;1.77;;
24635;SDS011;12772;49.794;10.024;2023-09-19T21:07:33;1.45;;;1.33;;
24635;SDS011;12772;49.794;10.024;2023-09-19T21:11:35;1.80;;;1.33;;
24635;SDS011;12772;49.794;10.024;2023-09-19T21:15:41;2.55;;;1.50;;
24635;SDS011;12772;49.794;10.024;2023-09-19T21:19:43;1.60;;;1.50;;
24635;SDS011;12772;49.794;10.024;2023-09-19T21:23:45;1.40;;;1.30;;
24635;SDS011;12772;49.794;10.024;2023-09-19T21:27:48;1.73;;;1.60;;
24635;SDS011;12772;49.794;10.024;2023-09-19T21:31:50;1.90;;;1.70;;
24635;SDS011;12772;49.794;10.024;2023-09-19T21:35:52;1.50;;;1.40;;
24635;SDS011;12772;49.794;10.024;2023-09-19T21:39:54;3.72;;;1.58;;
24635;SDS011;12772;49.794;10.024;2023-09-19T21:43:56;1.65;;;1.38;;
24635;SDS011;12772;49.794;10.024;2023-09-19T21:47:58;2.47;;;1.50;;
24635;SDS011;12772;49.794;10.024;2023-09-19T21:52:00;1.40;;;1.30;;
24635;SDS011;12772;49.794;10.024;2023-09-19T21:56:03;1.90;;;1.75;;
24635;SDS011;12772;49.794;10.024;2023-09-19T22:00:06;1.63;;;1.52;;
24635;SDS011;12772;49.794;10.024;2023-09-19T22:04:24;1.52;;;1.42;;
24635;SDS011;12772;49.794;10.024;2023-09-19T22:08:26;1.33;;;1.23;;
24635;SDS011;12772;49.794;10.024;2023-09-19T22:12:28;2.30;;;1.60;;
24635;SDS011;12772;49.794;10.024;2023-09-19T22:16:30;1.50;;;1.25;;
24635;SDS011;12772;49.794;10.024;2023-09-19T22:20:33;2.22;;;1.30;;
24635;SDS011;12772;49.794;10.024;2023-09-19T22:24:44;2.25;;;1.80;;
24635;SDS011;12772;49.794;10.024;2023-09-19T22:28:48;1.85;;;1.38;;
24635;SDS011;12772;49.794;10.024;2023-09-19T22:32:51;2.97;;;1.40;;
24635;SDS011;12772;49.794;10.024;2023-09-19T22:36:54;2.78;;;1.40;;
24635;SDS011;12772;49.794;10.024;2023-09-19T22:40:55;1.60;;;1.50;;
24635;SDS011;12772;49.794;10.024;2023-09-19T22:45:03;1.45;;;1.35;;
24635;SDS011;12772;49.794;10.024;2023-09-19T22:49:08;1.60;;;1.50;;
24635;SDS011;12772;49.794;10.024;2023-09-19T22:53:16;2.65;;;1.60;;
24635;SDS011;12772;49.794;10.024;2023-09-19T22:57:20;1.35;;;1.25;;
24635;SDS011;12772;49.794;10.024;2023-09-19T23:01:23;1.63;;;1.40;;
24635;SDS011;12772;49.794;10.024;2023-09-19T23:05:33;1.67;;;1.40;;
24635;SDS011;12772;49.794;10.024;2023-09-19T23:09:38;2.47;;;1.83;;
24635;SDS011;12772;49.794;10.024;2023-09-19T23:13:40;1.50;;;1.40;;
24635;SDS011;12772;49.794;10.024;2023-09-19T23:17:42;1.85;;;1.50;;
24635;SDS011;12772;49.794;10.024;2023-09-19T23:21:44;3.50;;;1.42;;
24635;SDS011;12772;49.794;10.024;2023-09-19T23:25:51;1.67;;;1.50;;
24635;SDS011;12772;49.794;10.024;2023-09-19T23:29:54;1.83;;;1.63;;
24635;SDS011;12772;49.794;10.024;2023-09-19T23:33:56;1.55;;;1.42;;
24635;SDS011;12772;49.794;10.024;2023-09-19T23:37:58;1.58;;;1.30;;
24635;SDS011;12772;49.794;10.024;2023-09-19T23:42:01;2.00;;;1.63;;
24635;SDS011;12772;49.794;10.024;2023-09-19T23:46:03;2.17;;;1.40;;
24635;SDS011;12772;49.794;10.024;2023-09-19T23:50:05;2.60;;;1.30;;
24635;SDS011;12772;49.794;10.024;2023-09-19T23:54:11;1.70;;;1.20;;
24635;SDS011;12772;49.794;10.024;2023-09-19T23:58:15;2.70;;;1.85;;
